Aviation Digital Data Service (ADDS)

Output produced by METARs form (1926 UTC 19 August 2019)
found at http://www.aviationweather.gov/metar/data/
 
Forecast for: OAKN (KANDAHAR INTL AR, AF)
Text: TAF OAKN 191500Z 1915/2021 VRB06KT 8000 HZ SKC QNH2970INS
Forecast period: 1500 UTC 19 August 2019 to 0700 UTC 20 August 2019
Forecast type: FROM: standard forecast or significant change
Winds: variable direction winds at 7 MPH (6 knots; 3.1 m/s)
Visibility: 5 miles (8 km)
Clouds: clear skies
Weather: HZ  (haze)
Text: BECMG 2007/2008 27012KT 9000 HZ SKC QNH2974INS
Forecast period: 0700 to 1400 UTC 20 August 2019
Forecast type: BECOMING: Conditions expected to become as follows by 0800 UTC 20 August 2019
Winds: from the W (270 degrees) at 14 MPH (12 knots; 6.2 m/s)
Visibility: 6 miles (9 km)
Clouds: clear skies
Weather: HZ  (haze)
Text: BECMG 2014/2015 VRB06KT 8000 HZ SKC QNH2978INS TX38/2011Z TN20/2001Z
Forecast period: 1400 to 2100 UTC 20 August 2019
Forecast type: BECOMING: Conditions expected to become as follows by 1500 UTC 20 August 2019
Winds: variable direction winds at 7 MPH (6 knots; 3.1 m/s)
Visibility: 5 miles (8 km)
Clouds: clear skies
Weather: HZ  (haze)